createdAt,value
2023-05-13T00:00:58.096Z,31.25
2023-05-13T00:06:03.121Z,29.00
2023-05-13T00:11:07.997Z,25.00
2023-05-13T00:16:12.906Z,26.75
2023-05-13T00:21:18.053Z,26.50
2023-05-13T00:26:23.353Z,31.50
2023-05-13T00:31:28.299Z,24.75
2023-05-13T00:36:33.266Z,30.75
2023-05-13T00:41:38.124Z,39.25
2023-05-13T00:46:43.156Z,34.25
2023-05-13T00:51:48.291Z,27.25
2023-05-13T00:56:58.217Z,31.00
2023-05-13T01:02:12.847Z,33.50
2023-05-13T01:07:23.917Z,26.00
2023-05-13T01:12:34.967Z,29.00
2023-05-13T01:17:49.048Z,27.50
2023-05-13T01:22:53.829Z,26.75
2023-05-13T01:27:59.407Z,29.25
2023-05-13T01:33:05.128Z,31.50
2023-05-13T01:38:10.722Z,32.75
2023-05-13T01:43:15.768Z,32.75
2023-05-13T01:48:20.589Z,23.00
2023-05-13T01:53:26.544Z,27.00
2023-05-13T01:58:31.775Z,25.00
2023-05-13T02:03:37.896Z,22.50
2023-05-13T02:08:43.011Z,29.25
2023-05-13T02:13:47.930Z,32.50
2023-05-13T02:18:52.763Z,27.25
2023-05-13T02:24:04.008Z,26.00
2023-05-13T02:29:10.401Z,30.50
2023-05-13T02:34:15.194Z,23.50
2023-05-13T02:39:23.722Z,27.00
2023-05-13T02:44:29.622Z,23.75
2023-05-13T02:49:35.000Z,21.50
2023-05-13T02:54:39.942Z,22.00
2023-05-13T02:59:45.083Z,22.50
2023-05-13T03:04:50.138Z,27.25
2023-05-13T03:09:55.399Z,19.75
2023-05-13T03:15:00.621Z,22.25
2023-05-13T03:20:05.574Z,20.75
2023-05-13T03:25:11.191Z,25.25
2023-05-13T03:30:24.434Z,20.25
2023-05-13T03:35:50.579Z,22.00
2023-05-13T03:41:00.490Z,21.75
2023-05-13T03:46:06.454Z,26.00
2023-05-13T03:51:11.472Z,21.00
2023-05-13T03:56:17.278Z,20.75
2023-05-13T04:01:24.189Z,19.50
2023-05-13T04:06:29.027Z,24.75
2023-05-13T04:11:34.339Z,23.75
2023-05-13T04:16:39.289Z,17.50
2023-05-13T04:21:44.120Z,20.50
2023-05-13T04:26:48.957Z,22.00
2023-05-13T04:31:55.550Z,21.25
2023-05-13T04:37:00.485Z,17.50
2023-05-13T04:42:05.335Z,26.00
2023-05-13T04:47:10.247Z,23.25
2023-05-13T04:52:15.268Z,21.25
2023-05-13T04:57:20.553Z,22.50
2023-05-13T05:02:25.557Z,21.50
2023-05-13T05:07:32.790Z,20.25
2023-05-13T05:12:39.447Z,18.25
2023-05-13T05:17:44.983Z,15.50
2023-05-13T05:22:51.556Z,18.00
2023-05-13T05:28:00.590Z,17.75
2023-05-13T05:33:05.712Z,18.75
2023-05-13T05:38:13.717Z,20.25
2023-05-13T05:43:19.042Z,17.75
2023-05-13T05:48:24.629Z,18.00
2023-05-13T05:53:30.277Z,16.00
2023-05-13T05:58:37.441Z,17.50
2023-05-13T06:03:43.328Z,18.00
2023-05-13T06:08:48.284Z,21.75
2023-05-13T06:13:56.184Z,20.50
2023-05-13T06:19:01.137Z,18.50
2023-05-13T06:24:06.300Z,19.25
2023-05-13T06:29:11.286Z,18.50
2023-05-13T06:34:18.052Z,19.50
2023-05-13T06:39:22.965Z,21.50
2023-05-13T06:44:28.779Z,18.75
2023-05-13T06:49:36.658Z,17.50
2023-05-13T06:54:41.800Z,16.75
2023-05-13T06:59:46.995Z,18.75
2023-05-13T07:04:52.182Z,17.25
2023-05-13T07:09:57.297Z,25.00
2023-05-13T07:15:02.151Z,17.50
2023-05-13T07:20:07.458Z,17.50
2023-05-13T07:25:12.442Z,17.50
2023-05-13T07:30:17.637Z,17.00
2023-05-13T07:35:22.672Z,18.75
2023-05-13T07:40:27.821Z,16.00
2023-05-13T07:45:32.777Z,17.25
2023-05-13T07:50:38.300Z,21.25
2023-05-13T07:55:43.295Z,17.50
2023-05-13T08:00:48.262Z,17.50
2023-05-13T08:05:53.511Z,15.50
2023-05-13T08:10:58.708Z,18.50
2023-05-13T08:16:04.979Z,19.00
2023-05-13T08:21:10.215Z,20.00
2023-05-13T08:26:15.499Z,16.75
2023-05-13T08:31:20.528Z,28.25
2023-05-13T08:36:28.597Z,17.00
2023-05-13T08:41:34.472Z,22.75
2023-05-13T08:46:39.920Z,21.50
2023-05-13T08:51:45.800Z,23.00
2023-05-13T08:56:51.777Z,20.00
2023-05-13T09:01:57.810Z,20.00
2023-05-13T09:07:05.120Z,28.25
2023-05-13T09:12:10.128Z,26.75
2023-05-13T09:17:15.086Z,25.50
2023-05-13T09:22:20.295Z,19.75
2023-05-13T09:27:48.875Z,27.75
2023-05-13T09:33:16.872Z,25.50
2023-05-13T09:38:33.983Z,26.25
2023-05-13T09:43:41.194Z,27.25
2023-05-13T09:48:45.963Z,30.00
2023-05-13T09:53:51.038Z,25.25
2023-05-13T09:58:56.140Z,24.25
2023-05-13T10:04:01.088Z,26.00
2023-05-13T10:09:07.385Z,29.25
2023-05-13T10:14:13.444Z,28.25
2023-05-13T10:19:19.081Z,29.50
2023-05-13T10:24:23.807Z,27.50
2023-05-13T10:29:30.458Z,26.75
2023-05-13T10:34:36.284Z,25.25
2023-05-13T10:40:03.994Z,27.00
2023-05-13T10:45:09.586Z,41.50
2023-05-13T10:50:42.773Z,30.50
2023-05-13T10:55:47.750Z,33.25
2023-05-13T11:00:52.870Z,36.50
2023-05-13T11:06:17.453Z,29.00
2023-05-13T11:11:29.581Z,30.75
2023-05-13T11:16:39.563Z,34.50
2023-05-13T11:21:44.396Z,33.25
2023-05-13T11:26:50.775Z,31.25
2023-05-13T11:32:00.288Z,34.50
2023-05-13T11:37:06.868Z,38.00
2023-05-13T11:42:12.633Z,28.75
2023-05-13T11:47:27.599Z,25.75
2023-05-13T11:52:32.947Z,36.50
2023-05-13T11:57:38.088Z,30.75
2023-05-13T12:02:43.004Z,23.75
2023-05-13T12:07:48.074Z,33.25
2023-05-13T12:12:53.785Z,29.75
2023-05-13T12:17:59.408Z,23.50
2023-05-13T12:23:05.726Z,24.25
2023-05-13T12:28:18.297Z,26.75
2023-05-13T12:33:24.198Z,27.00
2023-05-13T12:38:29.254Z,28.50
2023-05-13T12:43:35.414Z,24.00
2023-05-13T12:48:40.268Z,25.00
2023-05-13T12:53:45.346Z,21.00
2023-05-13T12:58:50.709Z,24.75
2023-05-13T13:03:55.954Z,23.50
2023-05-13T13:09:01.145Z,28.75
2023-05-13T13:14:06.976Z,24.25
2023-05-13T13:19:12.221Z,23.50
2023-05-13T13:24:17.148Z,22.00
2023-05-13T13:29:22.286Z,23.00
2023-05-13T13:34:27.500Z,26.25
2023-05-13T13:39:32.527Z,25.25
2023-05-13T13:44:39.248Z,31.25
2023-05-13T13:49:45.066Z,25.00
2023-05-13T13:54:50.453Z,27.75
2023-05-13T13:59:55.672Z,23.25
2023-05-13T14:05:00.541Z,24.75
2023-05-13T14:10:06.654Z,28.75
2023-05-13T14:15:13.587Z,26.25
2023-05-13T14:20:22.127Z,29.75
2023-05-13T14:25:27.546Z,33.25
2023-05-13T14:30:33.633Z,32.75
2023-05-13T14:35:42.684Z,23.75
2023-05-13T14:40:47.464Z,36.00
2023-05-13T14:45:52.506Z,27.75
2023-05-13T14:50:57.956Z,30.50
2023-05-13T14:56:03.074Z,33.75
2023-05-13T15:01:07.937Z,33.25
2023-05-13T15:06:12.952Z,27.75
2023-05-13T15:11:18.321Z,32.00
2023-05-13T15:16:24.033Z,32.50
2023-05-13T15:21:29.031Z,35.50
2023-05-13T15:26:34.198Z,31.50
2023-05-13T15:31:39.033Z,27.75
2023-05-13T15:36:43.837Z,31.25
2023-05-13T15:41:48.476Z,31.50
2023-05-13T15:46:53.329Z,25.25
2023-05-13T15:51:59.126Z,32.50
2023-05-13T15:57:03.956Z,29.00
2023-05-13T16:02:08.793Z,29.50
2023-05-13T16:07:13.546Z,24.00
2023-05-13T16:12:18.448Z,28.25
2023-05-13T16:17:23.814Z,29.25
2023-05-13T16:22:36.031Z,30.75
2023-05-13T16:27:41.544Z,29.25
2023-05-13T16:32:48.912Z,25.75
2023-05-13T16:37:53.959Z,27.25
2023-05-13T16:43:01.124Z,27.00
2023-05-13T16:48:08.093Z,25.25
2023-05-13T16:53:13.038Z,27.25
2023-05-13T16:58:18.410Z,28.75
2023-05-13T17:03:23.624Z,28.75
2023-05-13T17:08:28.743Z,27.25
2023-05-13T17:13:33.781Z,27.25
2023-05-13T17:18:39.117Z,30.25
2023-05-13T17:23:43.961Z,29.00
2023-05-13T17:28:48.923Z,26.00
2023-05-13T17:33:53.890Z,31.25
2023-05-13T17:38:58.955Z,24.75
2023-05-13T17:44:04.122Z,26.50
2023-05-13T17:49:09.249Z,29.50
2023-05-13T17:54:15.524Z,33.50
2023-05-13T17:59:20.182Z,24.25
2023-05-13T18:04:24.938Z,27.25
2023-05-13T18:09:29.635Z,30.00
2023-05-13T18:14:34.971Z,26.25
2023-05-13T18:19:40.040Z,31.25
2023-05-13T18:24:44.844Z,28.00
2023-05-13T18:29:50.620Z,29.25
2023-05-13T18:34:55.856Z,25.25
2023-05-13T18:40:00.806Z,27.75
2023-05-13T18:45:06.031Z,29.25
2023-05-13T18:50:11.008Z,24.00
2023-05-13T18:55:15.959Z,24.50
2023-05-13T19:00:20.944Z,27.75
2023-05-13T19:05:26.136Z,26.75
2023-05-13T19:10:33.546Z,23.25
2023-05-13T19:15:41.906Z,27.00
2023-05-13T19:20:48.025Z,30.00
2023-05-13T19:25:52.893Z,26.25
2023-05-13T19:30:58.352Z,29.00
2023-05-13T19:36:03.097Z,36.00
2023-05-13T19:41:09.004Z,27.75
2023-05-13T19:46:13.933Z,33.50
2023-05-13T19:51:19.495Z,31.25
2023-05-13T19:56:24.422Z,26.00
2023-05-13T20:01:29.288Z,31.00
2023-05-13T20:06:34.230Z,30.00
2023-05-13T20:11:38.723Z,25.00
2023-05-13T20:16:43.592Z,33.00
2023-05-13T20:21:48.796Z,31.25
2023-05-13T20:26:53.521Z,29.50
2023-05-13T20:31:58.268Z,27.75
2023-05-13T20:37:03.084Z,37.00
2023-05-13T20:42:08.097Z,33.25
2023-05-13T20:47:12.983Z,34.25
2023-05-13T20:52:18.074Z,26.00
2023-05-13T20:57:23.445Z,28.75
2023-05-13T21:02:28.638Z,28.25
2023-05-13T21:07:33.282Z,28.75
2023-05-13T21:12:38.050Z,26.00
2023-05-13T21:17:43.156Z,32.25
2023-05-13T21:22:48.715Z,38.25
2023-05-13T21:27:53.605Z,34.00
2023-05-13T21:32:58.351Z,27.75
2023-05-13T21:38:11.396Z,26.75
2023-05-13T21:43:17.090Z,28.50
2023-05-13T21:48:22.698Z,34.75
2023-05-13T21:53:27.591Z,30.00
2023-05-13T21:58:32.277Z,28.00
2023-05-13T22:03:37.203Z,31.50
2023-05-13T22:08:42.096Z,37.75
2023-05-13T22:13:47.126Z,36.25
2023-05-13T22:18:52.448Z,34.25
2023-05-13T22:23:57.420Z,46.00
2023-05-13T22:29:02.399Z,43.75
2023-05-13T22:34:07.321Z,47.50
2023-05-13T22:39:13.481Z,47.25
2023-05-13T22:44:18.142Z,46.00
2023-05-13T22:49:23.029Z,51.00
2023-05-13T22:54:27.972Z,40.75
2023-05-13T22:59:32.551Z,48.75
2023-05-13T23:04:37.507Z,53.00
2023-05-13T23:09:42.611Z,52.00
2023-05-13T23:14:47.450Z,48.50
2023-05-13T23:19:52.124Z,53.25
2023-05-13T23:24:57.159Z,50.25
2023-05-13T23:30:01.997Z,55.25
2023-05-13T23:35:07.158Z,53.25
2023-05-13T23:40:11.896Z,54.50
2023-05-13T23:45:17.394Z,55.00
2023-05-13T23:50:22.464Z,54.25
2023-05-13T23:55:27.499Z,54.25
